sensor_id;sensor_type;location;lat;lon;timestamp;temperature;humidity
9151;DHT22;4610;50.006;7.490;2023-02-15T00:01:25;-0.30;99.90
9151;DHT22;4610;50.006;7.490;2023-02-15T00:03:52;-0.30;99.90
9151;DHT22;4610;50.006;7.490;2023-02-15T00:06:21;-0.30;99.90
9151;DHT22;4610;50.006;7.490;2023-02-15T00:08:48;-0.30;99.90
9151;DHT22;4610;50.006;7.490;2023-02-15T00:11:16;-0.20;99.90
9151;DHT22;4610;50.006;7.490;2023-02-15T00:14:05;-0.30;99.90
9151;DHT22;4610;50.006;7.490;2023-02-15T00:16:32;-0.30;99.90
9151;DHT22;4610;50.006;7.490;2023-02-15T00:18:59;-0.40;99.90
9151;DHT22;4610;50.006;7.490;2023-02-15T00:21:29;-0.40;99.90
9151;DHT22;4610;50.006;7.490;2023-02-15T00:23:57;-0.50;99.90
9151;DHT22;4610;50.006;7.490;2023-02-15T00:26:24;-0.40;99.90
9151;DHT22;4610;50.006;7.490;2023-02-15T00:28:51;-0.50;99.90
9151;DHT22;4610;50.006;7.490;2023-02-15T00:31:18;-0.50;99.90
9151;DHT22;4610;50.006;7.490;2023-02-15T00:33:45;-0.50;99.90
9151;DHT22;4610;50.006;7.490;2023-02-15T00:36:12;-0.50;99.90
9151;DHT22;4610;50.006;7.490;2023-02-15T00:38:41;-0.60;99.90
9151;DHT22;4610;50.006;7.490;2023-02-15T00:41:08;-0.50;99.90
9151;DHT22;4610;50.006;7.490;2023-02-15T00:43:36;-0.50;99.90
9151;DHT22;4610;50.006;7.490;2023-02-15T00:46:04;-0.50;99.90
9151;DHT22;4610;50.006;7.490;2023-02-15T00:48:31;-0.50;99.90
9151;DHT22;4610;50.006;7.490;2023-02-15T00:50:59;-0.40;99.90
9151;DHT22;4610;50.006;7.490;2023-02-15T00:53:27;-0.40;99.90
9151;DHT22;4610;50.006;7.490;2023-02-15T00:55:56;-0.40;99.90
9151;DHT22;4610;50.006;7.490;2023-02-15T01:00:51;-0.40;99.90
9151;DHT22;4610;50.006;7.490;2023-02-15T01:03:20;-0.40;99.90
9151;DHT22;4610;50.006;7.490;2023-02-15T01:05:48;-0.40;99.90
9151;DHT22;4610;50.006;7.490;2023-02-15T01:08:15;-0.40;99.90
9151;DHT22;4610;50.006;7.490;2023-02-15T01:10:42;-0.50;99.90
9151;DHT22;4610;50.006;7.490;2023-02-15T01:13:10;-0.50;99.90
9151;DHT22;4610;50.006;7.490;2023-02-15T01:15:37;-0.50;99.90
9151;DHT22;4610;50.006;7.490;2023-02-15T01:18:04;-0.40;99.90
9151;DHT22;4610;50.006;7.490;2023-02-15T01:20:35;-0.40;99.90
9151;DHT22;4610;50.006;7.490;2023-02-15T01:23:02;-0.40;99.90
9151;DHT22;4610;50.006;7.490;2023-02-15T01:25:29;-0.40;99.90
9151;DHT22;4610;50.006;7.490;2023-02-15T01:27:56;-0.30;99.90
9151;DHT22;4610;50.006;7.490;2023-02-15T01:30:24;-0.90;99.90
9151;DHT22;4610;50.006;7.490;2023-02-15T01:32:50;-0.30;99.90
9151;DHT22;4610;50.006;7.490;2023-02-15T01:35:17;-0.30;99.90
9151;DHT22;4610;50.006;7.490;2023-02-15T01:37:44;-0.40;99.90
9151;DHT22;4610;50.006;7.490;2023-02-15T01:40:13;-0.40;99.90
9151;DHT22;4610;50.006;7.490;2023-02-15T01:42:42;-0.50;99.90
9151;DHT22;4610;50.006;7.490;2023-02-15T01:45:19;-0.50;99.90
9151;DHT22;4610;50.006;7.490;2023-02-15T01:47:51;-0.50;99.90
9151;DHT22;4610;50.006;7.490;2023-02-15T01:50:22;-0.50;99.90
9151;DHT22;4610;50.006;7.490;2023-02-15T01:52:52;-0.50;99.90
9151;DHT22;4610;50.006;7.490;2023-02-15T01:55:22;-0.40;99.90
9151;DHT22;4610;50.006;7.490;2023-02-15T01:57:51;-0.40;99.90
9151;DHT22;4610;50.006;7.490;2023-02-15T02:00:18;-0.40;99.90
9151;DHT22;4610;50.006;7.490;2023-02-15T02:02:49;-0.40;99.90
9151;DHT22;4610;50.006;7.490;2023-02-15T02:05:16;-0.40;99.90
9151;DHT22;4610;50.006;7.490;2023-02-15T02:07:44;-0.40;99.90
9151;DHT22;4610;50.006;7.490;2023-02-15T02:10:13;-0.40;99.90
9151;DHT22;4610;50.006;7.490;2023-02-15T02:12:42;-0.40;99.90
9151;DHT22;4610;50.006;7.490;2023-02-15T02:15:10;-0.50;99.90
9151;DHT22;4610;50.006;7.490;2023-02-15T02:17:46;-0.50;99.90
9151;DHT22;4610;50.006;7.490;2023-02-15T02:20:30;-0.60;99.90
9151;DHT22;4610;50.006;7.490;2023-02-15T02:23:23;-0.60;99.90
9151;DHT22;4610;50.006;7.490;2023-02-15T02:26:23;-0.50;99.90
9151;DHT22;4610;50.006;7.490;2023-02-15T02:29:14;-0.50;99.90
9151;DHT22;4610;50.006;7.490;2023-02-15T02:32:19;-0.50;99.90
9151;DHT22;4610;50.006;7.490;2023-02-15T02:34:55;-0.50;99.90
9151;DHT22;4610;50.006;7.490;2023-02-15T02:37:33;-0.60;99.90
9151;DHT22;4610;50.006;7.490;2023-02-15T02:40:05;-0.60;99.90
9151;DHT22;4610;50.006;7.490;2023-02-15T02:42:37;-0.60;99.90
9151;DHT22;4610;50.006;7.490;2023-02-15T02:45:08;-0.50;99.90
9151;DHT22;4610;50.006;7.490;2023-02-15T02:47:39;-0.50;99.90
9151;DHT22;4610;50.006;7.490;2023-02-15T02:50:11;-0.50;99.90
9151;DHT22;4610;50.006;7.490;2023-02-15T02:52:41;-0.40;99.90
9151;DHT22;4610;50.006;7.490;2023-02-15T02:55:13;-0.50;99.90
9151;DHT22;4610;50.006;7.490;2023-02-15T02:57:47;-0.40;99.90
9151;DHT22;4610;50.006;7.490;2023-02-15T03:00:17;-0.40;99.90
9151;DHT22;4610;50.006;7.490;2023-02-15T03:02:45;-0.50;99.90
9151;DHT22;4610;50.006;7.490;2023-02-15T03:05:18;-0.50;99.90
9151;DHT22;4610;50.006;7.490;2023-02-15T03:07:46;-0.50;99.90
9151;DHT22;4610;50.006;7.490;2023-02-15T03:10:16;-0.40;99.90
9151;DHT22;4610;50.006;7.490;2023-02-15T03:12:44;-0.50;99.90
9151;DHT22;4610;50.006;7.490;2023-02-15T03:15:16;-0.40;99.90
9151;DHT22;4610;50.006;7.490;2023-02-15T03:17:45;-0.50;99.90
9151;DHT22;4610;50.006;7.490;2023-02-15T03:20:20;-0.60;99.90
9151;DHT22;4610;50.006;7.490;2023-02-15T03:22:54;-0.70;99.90
9151;DHT22;4610;50.006;7.490;2023-02-15T03:25:23;-0.70;99.90
9151;DHT22;4610;50.006;7.490;2023-02-15T03:27:55;-0.80;99.90
9151;DHT22;4610;50.006;7.490;2023-02-15T03:30:26;-0.70;99.90
9151;DHT22;4610;50.006;7.490;2023-02-15T03:32:57;-0.70;99.90
9151;DHT22;4610;50.006;7.490;2023-02-15T03:35:32;-0.70;99.90
9151;DHT22;4610;50.006;7.490;2023-02-15T03:38:01;-0.70;99.90
9151;DHT22;4610;50.006;7.490;2023-02-15T03:40:32;-0.60;99.90
9151;DHT22;4610;50.006;7.490;2023-02-15T03:43:23;-0.70;99.90
9151;DHT22;4610;50.006;7.490;2023-02-15T03:45:53;-0.70;99.90
9151;DHT22;4610;50.006;7.490;2023-02-15T03:48:25;-0.60;99.90
9151;DHT22;4610;50.006;7.490;2023-02-15T03:50:57;-0.60;99.90
9151;DHT22;4610;50.006;7.490;2023-02-15T03:53:43;-0.70;99.90
9151;DHT22;4610;50.006;7.490;2023-02-15T03:56:11;-0.80;99.90
9151;DHT22;4610;50.006;7.490;2023-02-15T03:58:39;-0.80;99.90
9151;DHT22;4610;50.006;7.490;2023-02-15T04:01:27;-0.80;99.90
9151;DHT22;4610;50.006;7.490;2023-02-15T04:04:30;-0.90;99.90
9151;DHT22;4610;50.006;7.490;2023-02-15T04:07:00;-0.80;99.90
9151;DHT22;4610;50.006;7.490;2023-02-15T04:09:26;-0.80;99.90
9151;DHT22;4610;50.006;7.490;2023-02-15T04:12:10;-0.80;99.90
9151;DHT22;4610;50.006;7.490;2023-02-15T04:14:38;-0.70;99.90
9151;DHT22;4610;50.006;7.490;2023-02-15T04:17:24;-0.70;99.90
9151;DHT22;4610;50.006;7.490;2023-02-15T04:19:51;-0.70;99.90
9151;DHT22;4610;50.006;7.490;2023-02-15T04:22:36;-0.70;99.90
9151;DHT22;4610;50.006;7.490;2023-02-15T04:25:20;-0.60;99.90
9151;DHT22;4610;50.006;7.490;2023-02-15T04:27:49;-0.60;99.90
9151;DHT22;4610;50.006;7.490;2023-02-15T04:30:18;-0.60;99.90
9151;DHT22;4610;50.006;7.490;2023-02-15T04:32:45;-0.60;99.90
9151;DHT22;4610;50.006;7.490;2023-02-15T04:35:13;-0.60;99.90
9151;DHT22;4610;50.006;7.490;2023-02-15T04:37:42;-0.70;99.90
9151;DHT22;4610;50.006;7.490;2023-02-15T04:40:11;-0.80;99.90
9151;DHT22;4610;50.006;7.490;2023-02-15T04:42:39;-0.70;99.90
9151;DHT22;4610;50.006;7.490;2023-02-15T04:45:06;-0.80;99.90
9151;DHT22;4610;50.006;7.490;2023-02-15T04:47:33;-0.80;99.90
9151;DHT22;4610;50.006;7.490;2023-02-15T04:50:00;-0.80;99.90
9151;DHT22;4610;50.006;7.490;2023-02-15T04:52:27;-0.90;99.90
9151;DHT22;4610;50.006;7.490;2023-02-15T04:54:56;-0.80;99.90
9151;DHT22;4610;50.006;7.490;2023-02-15T04:57:22;-0.90;99.90
9151;DHT22;4610;50.006;7.490;2023-02-15T04:59:49;-0.90;99.90
9151;DHT22;4610;50.006;7.490;2023-02-15T05:02:16;-0.90;99.90
9151;DHT22;4610;50.006;7.490;2023-02-15T05:04:42;-0.90;99.90
9151;DHT22;4610;50.006;7.490;2023-02-15T05:07:09;-1.00;99.90
9151;DHT22;4610;50.006;7.490;2023-02-15T05:09:36;-0.10;99.90
9151;DHT22;4610;50.006;7.490;2023-02-15T05:12:04;-0.20;99.90
9151;DHT22;4610;50.006;7.490;2023-02-15T05:14:31;-0.40;99.90
9151;DHT22;4610;50.006;7.490;2023-02-15T05:16:58;0.20;99.90
9151;DHT22;4610;50.006;7.490;2023-02-15T05:19:27;0.10;99.90
9151;DHT22;4610;50.006;7.490;2023-02-15T05:21:53;-0.10;99.90
9151;DHT22;4610;50.006;7.490;2023-02-15T05:24:20;-0.30;99.90
9151;DHT22;4610;50.006;7.490;2023-02-15T05:27:07;-0.40;99.90
9151;DHT22;4610;50.006;7.490;2023-02-15T05:29:52;-0.50;99.90
9151;DHT22;4610;50.006;7.490;2023-02-15T05:32:19;-0.50;99.90
9151;DHT22;4610;50.006;7.490;2023-02-15T05:34:46;-0.50;99.90
9151;DHT22;4610;50.006;7.490;2023-02-15T05:37:13;-0.50;99.90
9151;DHT22;4610;50.006;7.490;2023-02-15T05:39:40;-0.50;99.90
9151;DHT22;4610;50.006;7.490;2023-02-15T05:42:09;-0.50;99.90
9151;DHT22;4610;50.006;7.490;2023-02-15T05:44:35;-0.50;99.90
9151;DHT22;4610;50.006;7.490;2023-02-15T05:47:02;-0.50;99.90
9151;DHT22;4610;50.006;7.490;2023-02-15T05:49:29;-0.60;99.90
9151;DHT22;4610;50.006;7.490;2023-02-15T05:51:56;-0.60;99.90
9151;DHT22;4610;50.006;7.490;2023-02-15T05:54:23;-0.60;99.90
9151;DHT22;4610;50.006;7.490;2023-02-15T05:56:50;-0.50;99.90
9151;DHT22;4610;50.006;7.490;2023-02-15T05:59:19;-0.50;99.90
9151;DHT22;4610;50.006;7.490;2023-02-15T06:01:46;-0.50;99.90
9151;DHT22;4610;50.006;7.490;2023-02-15T06:04:13;-0.60;99.90
9151;DHT22;4610;50.006;7.490;2023-02-15T06:06:39;-0.60;99.90
9151;DHT22;4610;50.006;7.490;2023-02-15T06:09:06;-0.60;99.90
9151;DHT22;4610;50.006;7.490;2023-02-15T06:11:33;-0.60;99.90
9151;DHT22;4610;50.006;7.490;2023-02-15T06:14:00;-0.60;99.90
9151;DHT22;4610;50.006;7.490;2023-02-15T06:16:29;-0.70;99.90
9151;DHT22;4610;50.006;7.490;2023-02-15T06:18:56;-0.80;99.90
9151;DHT22;4610;50.006;7.490;2023-02-15T06:21:24;-0.80;99.90
9151;DHT22;4610;50.006;7.490;2023-02-15T06:23:51;-0.80;99.90
9151;DHT22;4610;50.006;7.490;2023-02-15T06:26:18;-0.70;99.90
9151;DHT22;4610;50.006;7.490;2023-02-15T06:28:45;-0.70;99.90
9151;DHT22;4610;50.006;7.490;2023-02-15T06:31:12;-0.80;99.90
9151;DHT22;4610;50.006;7.490;2023-02-15T06:33:40;-0.70;99.90
9151;DHT22;4610;50.006;7.490;2023-02-15T06:36:07;-0.70;99.90
9151;DHT22;4610;50.006;7.490;2023-02-15T06:38:34;-0.60;99.90
9151;DHT22;4610;50.006;7.490;2023-02-15T06:41:00;-0.70;99.90
9151;DHT22;4610;50.006;7.490;2023-02-15T06:43:28;-0.10;99.90
9151;DHT22;4610;50.006;7.490;2023-02-15T06:45:54;0.30;99.90
9151;DHT22;4610;50.006;7.490;2023-02-15T06:48:21;0.20;99.90
9151;DHT22;4610;50.006;7.490;2023-02-15T06:50:49;0.00;99.90
9151;DHT22;4610;50.006;7.490;2023-02-15T06:53:16;-0.10;99.90
9151;DHT22;4610;50.006;7.490;2023-02-15T06:55:43;-0.30;99.90
9151;DHT22;4610;50.006;7.490;2023-02-15T06:58:09;-0.30;99.90
9151;DHT22;4610;50.006;7.490;2023-02-15T07:00:36;-0.40;99.90
9151;DHT22;4610;50.006;7.490;2023-02-15T07:03:03;-0.40;99.90
9151;DHT22;4610;50.006;7.490;2023-02-15T07:05:33;-0.40;99.90
9151;DHT22;4610;50.006;7.490;2023-02-15T07:08:01;-0.50;99.90
9151;DHT22;4610;50.006;7.490;2023-02-15T07:10:28;-0.50;99.90
9151;DHT22;4610;50.006;7.490;2023-02-15T07:12:55;-0.50;99.90
9151;DHT22;4610;50.006;7.490;2023-02-15T07:15:21;-0.50;99.90
9151;DHT22;4610;50.006;7.490;2023-02-15T07:17:48;-0.60;99.90
9151;DHT22;4610;50.006;7.490;2023-02-15T07:20:17;-0.50;99.90
9151;DHT22;4610;50.006;7.490;2023-02-15T07:22:45;-0.50;99.90
9151;DHT22;4610;50.006;7.490;2023-02-15T07:25:13;-0.50;99.90
9151;DHT22;4610;50.006;7.490;2023-02-15T07:27:40;-0.40;99.90
9151;DHT22;4610;50.006;7.490;2023-02-15T07:30:09;-0.30;99.90
9151;DHT22;4610;50.006;7.490;2023-02-15T07:32:37;-0.20;99.90
9151;DHT22;4610;50.006;7.490;2023-02-15T07:35:24;-0.20;99.90
9151;DHT22;4610;50.006;7.490;2023-02-15T07:37:51;-0.20;99.90
9151;DHT22;4610;50.006;7.490;2023-02-15T07:40:20;-0.20;99.90
9151;DHT22;4610;50.006;7.490;2023-02-15T07:42:48;-0.10;99.90
9151;DHT22;4610;50.006;7.490;2023-02-15T07:45:17;-0.10;99.90
9151;DHT22;4610;50.006;7.490;2023-02-15T07:47:43;-0.20;99.90
9151;DHT22;4610;50.006;7.490;2023-02-15T07:50:10;-0.10;99.90
9151;DHT22;4610;50.006;7.490;2023-02-15T07:52:37;-0.10;99.90
9151;DHT22;4610;50.006;7.490;2023-02-15T07:55:04;0.00;99.90
9151;DHT22;4610;50.006;7.490;2023-02-15T07:57:32;0.10;99.90
9151;DHT22;4610;50.006;7.490;2023-02-15T07:59:59;0.10;99.90
9151;DHT22;4610;50.006;7.490;2023-02-15T08:02:26;0.00;99.90
9151;DHT22;4610;50.006;7.490;2023-02-15T08:04:54;0.10;99.90
9151;DHT22;4610;50.006;7.490;2023-02-15T08:07:21;0.10;99.90
9151;DHT22;4610;50.006;7.490;2023-02-15T08:09:47;0.20;99.90
9151;DHT22;4610;50.006;7.490;2023-02-15T08:12:14;0.20;99.90
9151;DHT22;4610;50.006;7.490;2023-02-15T08:14:42;0.20;99.90
9151;DHT22;4610;50.006;7.490;2023-02-15T08:17:09;0.10;99.90
9151;DHT22;4610;50.006;7.490;2023-02-15T08:19:35;0.10;99.90
9151;DHT22;4610;50.006;7.490;2023-02-15T08:22:04;0.10;99.90
9151;DHT22;4610;50.006;7.490;2023-02-15T08:24:33;0.20;99.90
9151;DHT22;4610;50.006;7.490;2023-02-15T08:27:00;0.20;99.90
9151;DHT22;4610;50.006;7.490;2023-02-15T08:29:30;0.40;99.90
9151;DHT22;4610;50.006;7.490;2023-02-15T08:32:00;0.40;99.90
9151;DHT22;4610;50.006;7.490;2023-02-15T08:34:29;0.50;99.90
9151;DHT22;4610;50.006;7.490;2023-02-15T08:36:56;0.60;99.90
9151;DHT22;4610;50.006;7.490;2023-02-15T08:39:23;0.50;99.90
9151;DHT22;4610;50.006;7.490;2023-02-15T08:41:50;0.60;99.90
9151;DHT22;4610;50.006;7.490;2023-02-15T08:44:18;0.70;99.90
9151;DHT22;4610;50.006;7.490;2023-02-15T08:46:46;0.90;99.90
9151;DHT22;4610;50.006;7.490;2023-02-15T08:49:16;1.00;99.90
9151;DHT22;4610;50.006;7.490;2023-02-15T08:51:45;1.10;99.90
9151;DHT22;4610;50.006;7.490;2023-02-15T08:54:13;1.10;99.90
9151;DHT22;4610;50.006;7.490;2023-02-15T08:56:42;1.20;99.90
9151;DHT22;4610;50.006;7.490;2023-02-15T08:59:13;1.10;99.90
9151;DHT22;4610;50.006;7.490;2023-02-15T09:01:40;1.10;99.90
9151;DHT22;4610;50.006;7.490;2023-02-15T09:04:07;1.10;99.90
9151;DHT22;4610;50.006;7.490;2023-02-15T09:06:36;1.10;99.90
9151;DHT22;4610;50.006;7.490;2023-02-15T09:09:04;1.10;99.90
9151;DHT22;4610;50.006;7.490;2023-02-15T09:11:33;1.20;99.90
9151;DHT22;4610;50.006;7.490;2023-02-15T09:14:02;1.40;99.90
9151;DHT22;4610;50.006;7.490;2023-02-15T09:16:31;1.40;99.90
9151;DHT22;4610;50.006;7.490;2023-02-15T09:18:58;1.40;99.90
9151;DHT22;4610;50.006;7.490;2023-02-15T09:21:27;1.50;99.90
9151;DHT22;4610;50.006;7.490;2023-02-15T09:23:58;1.60;99.90
9151;DHT22;4610;50.006;7.490;2023-02-15T09:26:27;1.70;99.90
9151;DHT22;4610;50.006;7.490;2023-02-15T09:28:55;1.70;99.90
9151;DHT22;4610;50.006;7.490;2023-02-15T09:31:25;1.80;99.90
9151;DHT22;4610;50.006;7.490;2023-02-15T09:33:53;1.90;99.90
9151;DHT22;4610;50.006;7.490;2023-02-15T09:36:21;2.00;99.90
9151;DHT22;4610;50.006;7.490;2023-02-15T09:38:56;2.10;99.90
9151;DHT22;4610;50.006;7.490;2023-02-15T09:41:41;2.20;99.90
9151;DHT22;4610;50.006;7.490;2023-02-15T09:44:19;2.10;99.90
9151;DHT22;4610;50.006;7.490;2023-02-15T09:47:03;2.10;99.90
9151;DHT22;4610;50.006;7.490;2023-02-15T09:49:42;2.10;99.90
9151;DHT22;4610;50.006;7.490;2023-02-15T09:52:22;2.20;99.90
9151;DHT22;4610;50.006;7.490;2023-02-15T09:55:04;2.30;99.90
9151;DHT22;4610;50.006;7.490;2023-02-15T09:57:40;2.30;99.90
9151;DHT22;4610;50.006;7.490;2023-02-15T10:00:19;2.30;99.90
9151;DHT22;4610;50.006;7.490;2023-02-15T10:03:01;2.30;99.90
9151;DHT22;4610;50.006;7.490;2023-02-15T10:05:39;2.40;99.90
9151;DHT22;4610;50.006;7.490;2023-02-15T10:11:09;2.70;99.90
9151;DHT22;4610;50.006;7.490;2023-02-15T10:14:03;2.90;99.90
9151;DHT22;4610;50.006;7.490;2023-02-15T10:16:41;3.40;99.90
9151;DHT22;4610;50.006;7.490;2023-02-15T10:19:13;3.80;99.90
9151;DHT22;4610;50.006;7.490;2023-02-15T10:21:53;3.90;99.90
9151;DHT22;4610;50.006;7.490;2023-02-15T10:24:44;3.90;99.90
9151;DHT22;4610;50.006;7.490;2023-02-15T10:27:18;4.40;99.90
9151;DHT22;4610;50.006;7.490;2023-02-15T10:29:52;4.60;99.90
9151;DHT22;4610;50.006;7.490;2023-02-15T10:32:24;5.30;99.90
9151;DHT22;4610;50.006;7.490;2023-02-15T10:34:54;5.80;99.90
9151;DHT22;4610;50.006;7.490;2023-02-15T10:40:28;6.10;99.90
9151;DHT22;4610;50.006;7.490;2023-02-15T10:43:19;6.20;99.90
9151;DHT22;4610;50.006;7.490;2023-02-15T10:45:58;6.50;99.90
9151;DHT22;4610;50.006;7.490;2023-02-15T10:48:54;6.60;99.90
9151;DHT22;4610;50.006;7.490;2023-02-15T10:51:29;6.60;99.90
9151;DHT22;4610;50.006;7.490;2023-02-15T10:54:12;6.60;99.90
9151;DHT22;4610;50.006;7.490;2023-02-15T10:56:48;6.50;99.90
9151;DHT22;4610;50.006;7.490;2023-02-15T10:59:33;6.60;99.90
9151;DHT22;4610;50.006;7.490;2023-02-15T11:02:07;6.60;99.90
9151;DHT22;4610;50.006;7.490;2023-02-15T11:04:45;6.60;99.90
9151;DHT22;4610;50.006;7.490;2023-02-15T11:07:17;6.70;99.90
9151;DHT22;4610;50.006;7.490;2023-02-15T11:09:48;6.70;99.90
9151;DHT22;4610;50.006;7.490;2023-02-15T11:12:17;6.80;99.90
9151;DHT22;4610;50.006;7.490;2023-02-15T11:14:51;7.00;99.90
9151;DHT22;4610;50.006;7.490;2023-02-15T11:17:22;7.00;99.90
9151;DHT22;4610;50.006;7.490;2023-02-15T11:19:56;7.00;99.90
9151;DHT22;4610;50.006;7.490;2023-02-15T11:22:26;7.10;99.90
9151;DHT22;4610;50.006;7.490;2023-02-15T11:24:54;7.30;99.90
9151;DHT22;4610;50.006;7.490;2023-02-15T11:27:25;7.50;99.90
9151;DHT22;4610;50.006;7.490;2023-02-15T11:29:59;7.60;99.90
9151;DHT22;4610;50.006;7.490;2023-02-15T11:32:28;7.80;99.90
9151;DHT22;4610;50.006;7.490;2023-02-15T11:35:01;7.70;99.90
9151;DHT22;4610;50.006;7.490;2023-02-15T11:37:33;7.80;99.90
9151;DHT22;4610;50.006;7.490;2023-02-15T11:40:03;7.90;99.90
9151;DHT22;4610;50.006;7.490;2023-02-15T11:42:40;7.90;99.90
9151;DHT22;4610;50.006;7.490;2023-02-15T11:45:19;7.80;99.90
9151;DHT22;4610;50.006;7.490;2023-02-15T11:47:47;7.80;99.90
9151;DHT22;4610;50.006;7.490;2023-02-15T11:50:16;7.80;99.90
9151;DHT22;4610;50.006;7.490;2023-02-15T11:52:44;7.80;99.90
9151;DHT22;4610;50.006;7.490;2023-02-15T11:55:12;7.80;99.90
9151;DHT22;4610;50.006;7.490;2023-02-15T11:57:42;7.70;99.90
9151;DHT22;4610;50.006;7.490;2023-02-15T12:00:16;7.60;99.90
9151;DHT22;4610;50.006;7.490;2023-02-15T12:02:52;7.30;99.90
9151;DHT22;4610;50.006;7.490;2023-02-15T12:05:22;7.30;99.90
9151;DHT22;4610;50.006;7.490;2023-02-15T12:07:54;7.40;99.90
9151;DHT22;4610;50.006;7.490;2023-02-15T12:10:24;7.50;99.90
9151;DHT22;4610;50.006;7.490;2023-02-15T12:13:09;7.50;99.90
9151;DHT22;4610;50.006;7.490;2023-02-15T12:15:40;7.40;99.90
9151;DHT22;4610;50.006;7.490;2023-02-15T12:18:19;7.20;99.90
9151;DHT22;4610;50.006;7.490;2023-02-15T12:20:46;7.10;99.90
9151;DHT22;4610;50.006;7.490;2023-02-15T12:23:15;7.30;99.90
9151;DHT22;4610;50.006;7.490;2023-02-15T12:25:49;7.40;99.90
9151;DHT22;4610;50.006;7.490;2023-02-15T12:28:25;7.40;99.90
9151;DHT22;4610;50.006;7.490;2023-02-15T12:30:55;7.40;99.90
9151;DHT22;4610;50.006;7.490;2023-02-15T12:33:27;7.40;99.90
9151;DHT22;4610;50.006;7.490;2023-02-15T12:35:59;7.40;99.90
9151;DHT22;4610;50.006;7.490;2023-02-15T12:38:28;7.50;99.90
9151;DHT22;4610;50.006;7.490;2023-02-15T12:41:00;7.50;99.90
9151;DHT22;4610;50.006;7.490;2023-02-15T12:43:31;7.60;99.90
9151;DHT22;4610;50.006;7.490;2023-02-15T12:51:48;7.50;99.90
9151;DHT22;4610;50.006;7.490;2023-02-15T12:54:17;7.50;99.90
9151;DHT22;4610;50.006;7.490;2023-02-15T12:56:44;7.40;99.90
9151;DHT22;4610;50.006;7.490;2023-02-15T12:59:14;7.30;99.90
9151;DHT22;4610;50.006;7.490;2023-02-15T13:01:42;7.60;99.90
9151;DHT22;4610;50.006;7.490;2023-02-15T13:04:28;7.60;99.90
9151;DHT22;4610;50.006;7.490;2023-02-15T13:07:00;7.50;99.90
9151;DHT22;4610;50.006;7.490;2023-02-15T13:09:37;7.50;99.90
9151;DHT22;4610;50.006;7.490;2023-02-15T13:12:15;7.50;99.90
9151;DHT22;4610;50.006;7.490;2023-02-15T13:14:44;7.40;99.90
9151;DHT22;4610;50.006;7.490;2023-02-15T13:17:13;7.40;99.90
9151;DHT22;4610;50.006;7.490;2023-02-15T13:19:45;7.20;99.90
9151;DHT22;4610;50.006;7.490;2023-02-15T13:22:15;7.30;99.90
9151;DHT22;4610;50.006;7.490;2023-02-15T13:24:46;7.40;99.90
9151;DHT22;4610;50.006;7.490;2023-02-15T13:27:16;7.50;99.90
9151;DHT22;4610;50.006;7.490;2023-02-15T13:29:44;7.70;99.90
9151;DHT22;4610;50.006;7.490;2023-02-15T13:32:24;7.80;99.90
9151;DHT22;4610;50.006;7.490;2023-02-15T13:34:53;7.70;99.90
9151;DHT22;4610;50.006;7.490;2023-02-15T13:37:36;7.80;99.90
9151;DHT22;4610;50.006;7.490;2023-02-15T13:40:10;7.90;99.90
9151;DHT22;4610;50.006;7.490;2023-02-15T13:42:41;7.80;99.90
9151;DHT22;4610;50.006;7.490;2023-02-15T13:45:27;7.80;99.90
9151;DHT22;4610;50.006;7.490;2023-02-15T13:48:02;7.70;99.90
9151;DHT22;4610;50.006;7.490;2023-02-15T13:50:43;7.70;99.90
9151;DHT22;4610;50.006;7.490;2023-02-15T13:53:34;7.60;99.90
9151;DHT22;4610;50.006;7.490;2023-02-15T13:56:07;7.70;99.90
9151;DHT22;4610;50.006;7.490;2023-02-15T13:59:10;7.70;99.90
9151;DHT22;4610;50.006;7.490;2023-02-15T14:01:44;7.70;99.90
9151;DHT22;4610;50.006;7.490;2023-02-15T14:04:42;7.70;99.90
9151;DHT22;4610;50.006;7.490;2023-02-15T14:07:21;7.70;99.90
9151;DHT22;4610;50.006;7.490;2023-02-15T14:10:02;7.70;99.90
9151;DHT22;4610;50.006;7.490;2023-02-15T14:12:42;7.70;99.90
9151;DHT22;4610;50.006;7.490;2023-02-15T14:15:21;7.80;99.90
9151;DHT22;4610;50.006;7.490;2023-02-15T14:17:59;7.80;99.90
9151;DHT22;4610;50.006;7.490;2023-02-15T14:20:36;7.80;99.90
9151;DHT22;4610;50.006;7.490;2023-02-15T14:23:16;7.70;99.90
9151;DHT22;4610;50.006;7.490;2023-02-15T14:25:51;7.60;99.90
9151;DHT22;4610;50.006;7.490;2023-02-15T14:28:25;7.60;99.90
9151;DHT22;4610;50.006;7.490;2023-02-15T14:30:56;7.50;99.90
9151;DHT22;4610;50.006;7.490;2023-02-15T14:33:31;7.40;99.90
9151;DHT22;4610;50.006;7.490;2023-02-15T14:35:59;7.40;99.90
9151;DHT22;4610;50.006;7.490;2023-02-15T14:38:48;7.40;99.90
9151;DHT22;4610;50.006;7.490;2023-02-15T14:41:22;7.40;99.90
9151;DHT22;4610;50.006;7.490;2023-02-15T14:43:59;7.30;99.90
9151;DHT22;4610;50.006;7.490;2023-02-15T14:46:31;7.30;99.90
9151;DHT22;4610;50.006;7.490;2023-02-15T14:49:05;7.20;99.90
9151;DHT22;4610;50.006;7.490;2023-02-15T14:51:55;7.20;99.90
9151;DHT22;4610;50.006;7.490;2023-02-15T14:54:52;7.00;99.90
9151;DHT22;4610;50.006;7.490;2023-02-15T14:57:27;6.90;99.90
9151;DHT22;4610;50.006;7.490;2023-02-15T14:59:57;6.90;99.90
9151;DHT22;4610;50.006;7.490;2023-02-15T15:02:26;6.80;99.90
9151;DHT22;4610;50.006;7.490;2023-02-15T15:05:01;6.80;99.90
9151;DHT22;4610;50.006;7.490;2023-02-15T15:07:38;6.60;99.90
9151;DHT22;4610;50.006;7.490;2023-02-15T15:10:41;6.70;99.90
9151;DHT22;4610;50.006;7.490;2023-02-15T15:16:45;6.70;99.90
9151;DHT22;4610;50.006;7.490;2023-02-15T15:22:33;6.60;99.90
9151;DHT22;4610;50.006;7.490;2023-02-15T15:25:02;6.40;99.90
9151;DHT22;4610;50.006;7.490;2023-02-15T15:27:48;6.30;99.90
9151;DHT22;4610;50.006;7.490;2023-02-15T15:33:53;6.10;99.90
9151;DHT22;4610;50.006;7.490;2023-02-15T15:36:46;6.10;99.90
9151;DHT22;4610;50.006;7.490;2023-02-15T15:42:23;6.00;99.90
9151;DHT22;4610;50.006;7.490;2023-02-15T15:48:26;5.90;99.90
9151;DHT22;4610;50.006;7.490;2023-02-15T15:50:57;6.10;99.90
9151;DHT22;4610;50.006;7.490;2023-02-15T15:53:27;6.00;99.90
9151;DHT22;4610;50.006;7.490;2023-02-15T15:55:58;5.90;99.90
9151;DHT22;4610;50.006;7.490;2023-02-15T15:58:27;5.80;99.90
9151;DHT22;4610;50.006;7.490;2023-02-15T16:00:59;5.60;99.90
9151;DHT22;4610;50.006;7.490;2023-02-15T16:03:30;5.40;99.90
9151;DHT22;4610;50.006;7.490;2023-02-15T16:05:58;5.30;99.90
9151;DHT22;4610;50.006;7.490;2023-02-15T16:08:28;5.10;99.90
9151;DHT22;4610;50.006;7.490;2023-02-15T16:10:55;4.90;99.90
9151;DHT22;4610;50.006;7.490;2023-02-15T16:13:22;4.80;99.90
9151;DHT22;4610;50.006;7.490;2023-02-15T16:15:53;4.60;99.90
9151;DHT22;4610;50.006;7.490;2023-02-15T16:18:23;4.60;99.90
9151;DHT22;4610;50.006;7.490;2023-02-15T16:20:52;4.50;99.90
9151;DHT22;4610;50.006;7.490;2023-02-15T16:27:01;4.20;99.90
9151;DHT22;4610;50.006;7.490;2023-02-15T16:29:32;4.10;99.90
9151;DHT22;4610;50.006;7.490;2023-02-15T16:32:01;4.00;99.90
9151;DHT22;4610;50.006;7.490;2023-02-15T16:34:29;4.00;99.90
9151;DHT22;4610;50.006;7.490;2023-02-15T16:37:14;4.00;99.90
9151;DHT22;4610;50.006;7.490;2023-02-15T16:39:42;4.00;99.90
9151;DHT22;4610;50.006;7.490;2023-02-15T16:42:11;3.90;99.90
9151;DHT22;4610;50.006;7.490;2023-02-15T16:44:40;3.80;99.90
9151;DHT22;4610;50.006;7.490;2023-02-15T16:47:13;3.70;99.90
9151;DHT22;4610;50.006;7.490;2023-02-15T16:49:44;3.60;99.90
9151;DHT22;4610;50.006;7.490;2023-02-15T16:52:15;3.50;99.90
9151;DHT22;4610;50.006;7.490;2023-02-15T16:54:44;3.50;99.90
9151;DHT22;4610;50.006;7.490;2023-02-15T16:57:19;3.40;99.90
9151;DHT22;4610;50.006;7.490;2023-02-15T16:59:48;3.40;99.90
9151;DHT22;4610;50.006;7.490;2023-02-15T17:02:18;3.40;99.90
9151;DHT22;4610;50.006;7.490;2023-02-15T17:05:04;3.40;99.90
9151;DHT22;4610;50.006;7.490;2023-02-15T17:07:33;3.40;99.90
9151;DHT22;4610;50.006;7.490;2023-02-15T17:09:59;3.30;99.90
9151;DHT22;4610;50.006;7.490;2023-02-15T17:12:46;3.20;99.90
9151;DHT22;4610;50.006;7.490;2023-02-15T17:15:25;3.10;99.90